createdAt,value
2019-03-08T00:22:32.654Z,0.80
2019-03-08T00:25:01.107Z,0.73
2019-03-08T00:27:29.543Z,0.70
2019-03-08T00:29:58.344Z,0.60
2019-03-08T00:32:26.792Z,0.60
2019-03-08T00:34:55.308Z,0.60
2019-03-08T00:37:23.722Z,0.40
2019-03-08T00:39:52.164Z,0.57
2019-03-08T00:42:20.951Z,0.70
2019-03-08T00:44:49.395Z,0.40
2019-03-08T00:47:17.819Z,0.70
2019-03-08T00:49:46.282Z,0.70
2019-03-08T00:52:14.715Z,0.77
2019-03-08T00:54:43.441Z,0.70
2019-03-08T00:57:11.882Z,0.77
2019-03-08T00:59:40.705Z,0.93
2019-03-08T01:02:09.499Z,0.70
2019-03-08T01:04:37.956Z,0.77
2019-03-08T01:07:06.472Z,0.60
2019-03-08T01:09:34.955Z,0.70
2019-03-08T01:12:03.427Z,0.50
2019-03-08T01:14:32.407Z,0.80
2019-03-08T01:17:00.910Z,0.67
2019-03-08T01:19:29.410Z,0.90
2019-03-08T01:21:57.867Z,0.60
2019-03-08T01:24:26.471Z,0.60
2019-03-08T01:26:54.936Z,0.67
2019-03-08T01:29:23.431Z,0.90
2019-03-08T01:31:53.412Z,0.60
2019-03-08T01:34:22.010Z,0.60
2019-03-08T01:36:50.878Z,0.80
2019-03-08T01:39:19.326Z,0.87
2019-03-08T01:41:47.775Z,1.00
2019-03-08T01:44:16.223Z,0.60
2019-03-08T01:46:44.670Z,0.63
2019-03-08T01:49:13.110Z,0.70
2019-03-08T01:51:41.894Z,0.60
2019-03-08T01:54:10.320Z,0.80
2019-03-08T01:56:38.802Z,0.60
2019-03-08T01:59:07.323Z,0.80
2019-03-08T02:01:35.800Z,0.50
2019-03-08T02:04:04.250Z,0.60
2019-03-08T02:06:32.671Z,0.83
2019-03-08T02:09:01.099Z,0.60
2019-03-08T02:11:29.542Z,0.93
2019-03-08T02:13:57.986Z,0.77
2019-03-08T02:16:26.440Z,0.63
2019-03-08T02:18:54.881Z,0.70
2019-03-08T02:21:23.325Z,0.87
2019-03-08T02:23:51.831Z,0.77
2019-03-08T02:26:20.261Z,0.70
2019-03-08T02:28:48.688Z,0.60
2019-03-08T02:31:17.130Z,0.60
2019-03-08T02:33:45.574Z,0.63
2019-03-08T02:36:14.280Z,0.83
2019-03-08T02:38:43.061Z,0.90
2019-03-08T02:41:11.848Z,0.70
2019-03-08T02:43:40.292Z,0.80
2019-03-08T02:46:08.740Z,0.90
2019-03-08T02:48:37.187Z,1.00
2019-03-08T02:51:05.609Z,0.80
2019-03-08T02:53:34.145Z,1.10
2019-03-08T02:56:02.573Z,0.63
2019-03-08T02:58:31.018Z,0.80
2019-03-08T03:00:59.423Z,1.00
2019-03-08T03:03:28.381Z,1.03
2019-03-08T03:05:56.801Z,1.00
2019-03-08T03:08:25.269Z,1.10
2019-03-08T03:10:53.684Z,0.77
2019-03-08T03:13:22.127Z,1.00
2019-03-08T03:15:50.556Z,0.77
2019-03-08T03:18:19.465Z,1.17
2019-03-08T03:20:48.253Z,1.10
2019-03-08T03:23:17.030Z,1.20
2019-03-08T03:25:45.933Z,0.80
2019-03-08T03:28:14.712Z,1.00
2019-03-08T03:30:43.133Z,0.87
2019-03-08T03:33:11.962Z,0.83
2019-03-08T03:35:40.388Z,0.80
2019-03-08T03:38:09.132Z,0.83
2019-03-08T03:40:37.558Z,0.50
2019-03-08T03:43:06.297Z,1.10
2019-03-08T03:45:35.081Z,0.60
2019-03-08T03:48:04.260Z,0.93
2019-03-08T03:50:32.694Z,0.80
2019-03-08T03:53:01.156Z,1.03
2019-03-08T03:55:29.589Z,0.80
2019-03-08T03:57:58.038Z,0.67
2019-03-08T04:00:26.528Z,0.60
2019-03-08T04:02:55.800Z,0.60
2019-03-08T04:05:24.561Z,0.80
2019-03-08T04:07:53.274Z,0.80
2019-03-08T04:10:21.721Z,0.80
2019-03-08T04:12:50.136Z,0.70
2019-03-08T04:15:22.324Z,0.50
2019-03-08T04:17:50.749Z,0.60
2019-03-08T04:20:20.666Z,0.53
2019-03-08T04:22:49.116Z,0.50
2019-03-08T04:25:17.624Z,0.50
2019-03-08T04:27:46.062Z,0.60
2019-03-08T04:30:21.327Z,0.70
2019-03-08T04:32:49.744Z,0.60
2019-03-08T04:35:18.247Z,0.70
2019-03-08T04:37:46.684Z,0.53
2019-03-08T04:40:15.371Z,0.60
2019-03-08T04:42:43.884Z,0.60
2019-03-08T04:45:14.642Z,0.70
2019-03-08T04:47:43.148Z,0.60
2019-03-08T04:50:14.000Z,0.70
2019-03-08T04:52:42.441Z,0.77
2019-03-08T04:55:19.081Z,0.77
2019-03-08T04:57:47.983Z,0.80
2019-03-08T05:00:20.448Z,0.70
2019-03-08T05:02:49.492Z,0.90
2019-03-08T05:05:18.304Z,0.80
2019-03-08T05:07:47.082Z,0.83
2019-03-08T05:10:17.017Z,0.70
2019-03-08T05:12:45.718Z,1.00
2019-03-08T05:15:16.470Z,1.00
2019-03-08T05:17:44.976Z,0.80
2019-03-08T05:20:13.861Z,0.83
2019-03-08T05:22:42.349Z,0.77
2019-03-08T05:25:13.290Z,0.90
2019-03-08T05:27:41.782Z,0.73
2019-03-08T05:30:17.844Z,0.70
2019-03-08T05:32:46.258Z,1.00
2019-03-08T05:35:15.215Z,0.83
2019-03-08T05:37:43.993Z,0.80
2019-03-08T05:40:14.761Z,0.73
2019-03-08T05:42:43.520Z,0.97
2019-03-08T05:45:13.684Z,0.67
2019-03-08T05:47:42.119Z,0.83
2019-03-08T05:50:12.268Z,0.80
2019-03-08T05:52:41.432Z,0.90
2019-03-08T05:55:11.656Z,0.87
2019-03-08T05:57:40.162Z,0.80
2019-03-08T06:00:17.493Z,0.90
2019-03-08T06:02:45.909Z,1.13
2019-03-08T06:05:14.723Z,0.70
2019-03-08T06:07:43.146Z,0.90
2019-03-08T06:10:31.590Z,0.80
2019-03-08T06:13:01.657Z,0.93
2019-03-08T06:15:30.108Z,0.87
2019-03-08T06:17:59.055Z,0.87
2019-03-08T06:20:27.770Z,1.47
2019-03-08T06:22:57.392Z,1.43
2019-03-08T06:25:26.368Z,1.00
2019-03-08T06:27:55.811Z,0.57
2019-03-08T06:30:24.498Z,0.90
2019-03-08T06:32:53.385Z,1.07
2019-03-08T06:35:21.862Z,0.87
2019-03-08T06:37:56.075Z,0.93
2019-03-08T06:40:24.506Z,1.00
2019-03-08T06:42:52.958Z,0.80
2019-03-08T06:45:21.482Z,0.70
2019-03-08T06:47:49.901Z,1.20
2019-03-08T06:50:18.741Z,0.80
2019-03-08T06:52:47.170Z,0.97
2019-03-08T06:55:16.632Z,0.60
2019-03-08T06:57:46.155Z,1.07
2019-03-08T07:00:36.250Z,1.03
2019-03-08T07:06:45.434Z,0.80
2019-03-08T07:09:13.859Z,0.70
2019-03-08T07:11:42.263Z,0.73
2019-03-08T07:14:12.575Z,0.77
2019-03-08T07:16:41.223Z,0.70
2019-03-08T07:19:09.725Z,0.83
2019-03-08T07:21:42.542Z,0.80
2019-03-08T07:24:12.620Z,0.93
2019-03-08T07:26:51.868Z,0.70
2019-03-08T07:29:21.937Z,0.93
2019-03-08T07:31:58.116Z,0.60
2019-03-08T07:34:28.552Z,0.80
2019-03-08T07:37:04.366Z,0.73
2019-03-08T07:39:40.162Z,0.80
2019-03-08T07:42:18.973Z,0.80
2019-03-08T07:44:57.633Z,0.50
2019-03-08T07:47:28.044Z,0.80
2019-03-08T07:49:58.116Z,0.70
2019-03-08T07:52:28.232Z,0.60
2019-03-08T07:54:58.300Z,1.10
2019-03-08T07:57:34.268Z,0.80
2019-03-08T08:00:05.017Z,0.80
2019-03-08T08:02:37.580Z,0.70
2019-03-08T08:05:21.597Z,1.17
2019-03-08T08:07:52.353Z,0.97
2019-03-08T08:10:37.648Z,1.10
2019-03-08T08:13:07.733Z,1.13
2019-03-08T08:15:49.490Z,1.07
2019-03-08T08:18:22.252Z,0.83
2019-03-08T08:21:04.296Z,1.10
2019-03-08T08:23:37.705Z,0.73
2019-03-08T08:26:23.570Z,1.30
2019-03-08T08:28:53.731Z,0.90
2019-03-08T08:31:24.706Z,1.43
2019-03-08T08:34:07.053Z,0.97
2019-03-08T08:36:37.163Z,1.03
2019-03-08T08:39:29.093Z,0.70
2019-03-08T08:41:59.573Z,0.80
2019-03-08T08:44:45.869Z,1.00
2019-03-08T08:47:15.941Z,0.60
2019-03-08T08:49:56.169Z,1.00
2019-03-08T08:52:29.748Z,0.80
2019-03-08T08:54:59.839Z,1.03
2019-03-08T08:57:32.941Z,1.33
2019-03-08T09:00:12.816Z,0.90
2019-03-08T09:02:49.248Z,1.07
2019-03-08T09:05:32.035Z,0.67
2019-03-08T09:08:13.984Z,1.40
2019-03-08T09:10:50.333Z,0.83
2019-03-08T09:13:23.314Z,1.00
2019-03-08T09:15:59.685Z,1.27
2019-03-08T09:18:44.704Z,1.00
2019-03-08T09:21:23.699Z,1.00
2019-03-08T09:23:54.013Z,1.20
2019-03-08T09:26:33.189Z,1.00
2019-03-08T09:29:09.350Z,0.80
2019-03-08T09:31:55.636Z,0.70
2019-03-08T09:34:25.721Z,0.67
2019-03-08T09:37:08.054Z,0.70
2019-03-08T09:39:38.152Z,0.80
2019-03-08T09:42:11.225Z,0.97
2019-03-08T09:44:41.668Z,0.93
2019-03-08T09:47:28.578Z,1.03
2019-03-08T09:50:01.906Z,1.00
2019-03-08T09:52:35.169Z,1.20
2019-03-08T09:55:12.227Z,0.70
2019-03-08T09:57:54.576Z,0.70
2019-03-08T10:00:30.424Z,0.83
2019-03-08T10:03:06.540Z,1.00
2019-03-08T10:05:37.642Z,0.80
2019-03-08T10:08:07.841Z,0.70
2019-03-08T10:10:54.015Z,0.80
2019-03-08T10:13:32.182Z,0.73
2019-03-08T10:16:08.004Z,0.70
2019-03-08T10:18:42.912Z,1.43
2019-03-08T10:21:13.152Z,0.70
2019-03-08T10:23:49.721Z,1.10
2019-03-08T10:26:21.223Z,0.70
2019-03-08T10:29:03.293Z,1.10
2019-03-08T10:31:33.517Z,1.00
2019-03-08T10:34:06.081Z,0.93
2019-03-08T10:36:36.627Z,1.00
2019-03-08T10:39:12.060Z,1.00
2019-03-08T10:41:42.254Z,1.23
2019-03-08T10:44:21.364Z,1.03
2019-03-08T10:47:03.518Z,1.20
2019-03-08T10:49:54.703Z,0.90
2019-03-08T10:52:20.609Z,0.80
2019-03-08T10:55:07.687Z,0.77
2019-03-08T10:57:54.374Z,1.00
2019-03-08T11:00:24.997Z,1.03
2019-03-08T11:03:03.885Z,1.07
2019-03-08T11:05:33.949Z,1.07
2019-03-08T11:08:05.934Z,0.97
2019-03-08T11:10:52.182Z,1.00
2019-03-08T11:13:43.186Z,1.00
2019-03-08T11:16:13.768Z,1.20
2019-03-08T11:18:47.322Z,0.70
2019-03-08T11:21:20.097Z,0.90
2019-03-08T11:23:50.165Z,1.20
2019-03-08T11:26:26.308Z,1.00
2019-03-08T11:28:59.115Z,1.17
2019-03-08T11:31:47.306Z,1.00
2019-03-08T11:34:29.530Z,0.70
2019-03-08T11:37:04.222Z,1.03
2019-03-08T11:39:52.709Z,0.53
2019-03-08T11:42:22.780Z,0.83
2019-03-08T11:45:05.081Z,0.80
2019-03-08T11:47:50.120Z,1.00
2019-03-08T11:50:22.893Z,1.30
2019-03-08T11:53:08.348Z,0.70
2019-03-08T11:55:38.431Z,0.77
2019-03-08T11:58:26.104Z,1.00
2019-03-08T12:01:14.757Z,0.80
2019-03-08T12:03:49.312Z,0.73
2019-03-08T12:06:28.925Z,0.60
2019-03-08T12:09:26.591Z,0.93
2019-03-08T12:12:13.125Z,0.77
2019-03-08T12:14:43.709Z,0.83
2019-03-08T12:17:30.240Z,0.70
2019-03-08T12:20:03.044Z,0.60
2019-03-08T12:22:48.094Z,0.80
2019-03-08T12:25:18.496Z,1.03
2019-03-08T12:27:57.874Z,1.30
2019-03-08T12:30:27.937Z,0.90
2019-03-08T12:33:01.128Z,0.87
2019-03-08T12:35:38.122Z,0.67
2019-03-08T12:38:08.198Z,1.00
2019-03-08T12:40:38.766Z,0.87
2019-03-08T12:43:15.332Z,0.87
2019-03-08T12:45:53.986Z,0.70
2019-03-08T12:48:39.225Z,0.70
2019-03-08T12:51:19.975Z,0.50
2019-03-08T12:54:03.409Z,0.60
2019-03-08T12:56:44.574Z,0.90
2019-03-08T12:59:26.677Z,0.80
2019-03-08T13:01:59.479Z,0.80
2019-03-08T13:04:47.601Z,1.00
2019-03-08T13:07:18.604Z,0.90
2019-03-08T13:09:49.973Z,0.90
2019-03-08T13:12:18.410Z,1.10
2019-03-08T13:14:46.844Z,0.90
2019-03-08T13:17:15.276Z,1.10
2019-03-08T13:19:43.749Z,1.10
2019-03-08T13:22:13.056Z,1.00
2019-03-08T13:24:41.835Z,1.00
2019-03-08T13:27:10.283Z,1.07
2019-03-08T13:29:38.703Z,0.97
2019-03-08T13:32:07.167Z,1.13
2019-03-08T13:34:35.584Z,1.00
2019-03-08T13:37:04.234Z,1.00
2019-03-08T13:39:32.978Z,1.13
2019-03-08T13:42:01.401Z,1.17
2019-03-08T13:44:29.906Z,1.10
2019-03-08T13:46:58.817Z,1.23
2019-03-08T13:49:27.618Z,1.20
2019-03-08T13:51:56.422Z,1.13
2019-03-08T13:54:24.861Z,1.10
2019-03-08T13:56:53.303Z,1.00
2019-03-08T13:59:21.833Z,0.93
2019-03-08T14:01:50.331Z,1.20
2019-03-08T14:04:18.756Z,1.40
2019-03-08T14:06:47.173Z,1.13
2019-03-08T14:09:15.630Z,0.90
2019-03-08T14:11:44.137Z,1.07
2019-03-08T14:14:14.578Z,1.00
2019-03-08T14:16:42.848Z,1.10
2019-03-08T14:19:11.308Z,1.00
2019-03-08T14:21:40.854Z,1.27
2019-03-08T14:24:09.297Z,1.07
2019-03-08T14:26:37.720Z,1.37
2019-03-08T14:29:06.462Z,0.90
2019-03-08T14:31:45.353Z,0.90
2019-03-08T14:34:16.717Z,1.17
2019-03-08T14:36:44.348Z,1.00
2019-03-08T14:39:13.329Z,1.10
2019-03-08T14:41:46.048Z,0.90
2019-03-08T14:44:22.779Z,1.00
2019-03-08T14:46:57.611Z,0.73
2019-03-08T14:49:26.549Z,1.17
2019-03-08T14:51:55.051Z,0.83
2019-03-08T14:54:24.063Z,1.07
2019-03-08T14:56:52.552Z,0.90
2019-03-08T14:59:30.878Z,1.13
2019-03-08T15:01:59.604Z,0.90
2019-03-08T15:04:29.358Z,0.90
2019-03-08T15:07:01.301Z,0.80
2019-03-08T15:09:29.401Z,0.87
2019-03-08T15:11:59.570Z,0.80
2019-03-08T15:14:30.139Z,1.00
2019-03-08T15:17:08.684Z,0.60
2019-03-08T15:19:36.075Z,0.90
2019-03-08T15:22:02.933Z,0.80
2019-03-08T15:24:38.064Z,0.73
2019-03-08T15:27:04.105Z,0.87
2019-03-08T15:29:33.709Z,0.80
2019-03-08T15:32:02.164Z,0.90
2019-03-08T15:34:30.665Z,0.80
2019-03-08T15:37:03.180Z,0.90
2019-03-08T15:39:31.669Z,0.90
2019-03-08T15:42:02.343Z,0.90
2019-03-08T15:44:30.285Z,1.10
2019-03-08T15:46:59.288Z,0.90
2019-03-08T15:49:30.556Z,1.00
2019-03-08T15:52:03.588Z,0.90
2019-03-08T15:54:32.278Z,0.90
2019-03-08T15:57:03.953Z,1.10
2019-03-08T15:59:32.393Z,1.10
2019-03-08T16:02:02.175Z,0.77
2019-03-08T16:04:31.059Z,1.00
2019-03-08T16:06:59.825Z,4.53
2019-03-08T16:09:31.062Z,2.60
2019-03-08T16:11:59.528Z,1.63
2019-03-08T16:14:27.961Z,2.03
2019-03-08T16:16:56.696Z,2.60
2019-03-08T16:19:36.377Z,1.40
2019-03-08T16:22:04.820Z,1.10
2019-03-08T16:24:33.255Z,1.10
2019-03-08T16:27:02.277Z,1.23
2019-03-08T16:29:43.974Z,1.10
2019-03-08T16:32:13.824Z,1.00
2019-03-08T16:34:42.120Z,0.97
2019-03-08T16:37:14.118Z,1.17
2019-03-08T16:39:46.722Z,1.80
2019-03-08T16:42:28.591Z,1.57
2019-03-08T16:44:58.457Z,1.30
2019-03-08T16:47:30.719Z,1.10
2019-03-08T16:50:03.560Z,1.00
2019-03-08T16:52:49.926Z,1.00
2019-03-08T16:55:34.082Z,1.10
2019-03-08T16:58:22.297Z,1.40
2019-03-08T17:01:04.303Z,1.23
2019-03-08T17:03:46.486Z,1.13
2019-03-08T17:06:26.394Z,1.40
2019-03-08T17:08:55.919Z,1.33
2019-03-08T17:11:41.690Z,1.40
2019-03-08T17:14:14.588Z,1.40
2019-03-08T17:16:47.318Z,1.50
2019-03-08T17:19:25.998Z,1.40
2019-03-08T17:21:56.083Z,1.33
2019-03-08T17:24:26.152Z,1.90
2019-03-08T17:26:59.093Z,1.93
2019-03-08T17:29:35.284Z,1.67
2019-03-08T17:32:14.349Z,1.50
2019-03-08T17:34:45.682Z,1.97
2019-03-08T17:37:15.961Z,1.60
2019-03-08T17:39:51.459Z,1.57
2019-03-08T17:42:24.570Z,1.57
2019-03-08T17:45:13.133Z,1.73
2019-03-08T17:47:45.990Z,2.57
2019-03-08T17:50:18.457Z,2.30
2019-03-08T17:52:48.548Z,2.30
2019-03-08T17:55:36.614Z,1.90
2019-03-08T17:58:09.725Z,1.60
2019-03-08T18:00:48.788Z,1.57
2019-03-08T18:03:18.861Z,4.30
2019-03-08T18:06:07.110Z,3.87
2019-03-08T18:08:37.204Z,3.20
2019-03-08T18:11:13.328Z,3.70
2019-03-08T18:13:59.282Z,6.13
2019-03-08T18:16:35.342Z,5.00
2019-03-08T18:19:11.497Z,4.87
2019-03-08T18:21:41.580Z,4.90
2019-03-08T18:24:11.947Z,5.23
2019-03-08T18:26:42.031Z,5.63
2019-03-08T18:29:26.743Z,3.90
2019-03-08T18:32:04.347Z,3.27
2019-03-08T18:34:49.617Z,3.40
2019-03-08T18:37:34.922Z,4.37
2019-03-08T18:40:06.104Z,4.67
2019-03-08T18:42:41.854Z,4.77
2019-03-08T18:45:31.246Z,5.20
2019-03-08T18:48:01.443Z,6.37
2019-03-08T18:50:31.560Z,4.57
2019-03-08T18:53:01.618Z,3.40
2019-03-08T18:55:31.696Z,3.63
2019-03-08T18:58:10.893Z,3.20
2019-03-08T19:00:41.029Z,3.20
2019-03-08T19:03:27.792Z,3.57
2019-03-08T19:06:01.137Z,3.43
2019-03-08T19:08:46.429Z,4.47
2019-03-08T19:11:19.426Z,4.20
2019-03-08T19:13:49.500Z,4.20
2019-03-08T19:16:34.592Z,4.33
2019-03-08T19:19:10.433Z,4.53
2019-03-08T19:21:40.891Z,4.00
2019-03-08T19:24:10.958Z,3.80
2019-03-08T19:26:57.540Z,3.70
2019-03-08T19:29:27.642Z,4.17
2019-03-08T19:32:04.716Z,3.67
2019-03-08T19:34:37.596Z,3.40
2019-03-08T19:37:07.681Z,2.97
2019-03-08T19:39:43.605Z,3.30
2019-03-08T19:42:22.720Z,3.30
2019-03-08T19:44:59.030Z,3.23
2019-03-08T19:47:45.250Z,2.90
2019-03-08T19:50:21.273Z,2.77
2019-03-08T19:53:00.364Z,3.10
2019-03-08T19:55:33.156Z,3.03
2019-03-08T19:58:06.421Z,3.23
2019-03-08T20:00:39.886Z,3.17
2019-03-08T20:03:10.337Z,3.47
2019-03-08T20:05:43.354Z,3.40
2019-03-08T20:08:19.871Z,3.03
2019-03-08T20:10:53.037Z,3.20
2019-03-08T20:13:28.652Z,2.90
2019-03-08T20:15:58.721Z,3.40
2019-03-08T20:18:28.783Z,4.10
2019-03-08T20:21:01.528Z,5.23
2019-03-08T20:23:31.600Z,4.43
2019-03-08T20:26:01.685Z,3.13
2019-03-08T20:28:48.192Z,3.50
2019-03-08T20:31:21.760Z,3.37
2019-03-08T20:33:58.007Z,3.37
2019-03-08T20:36:34.185Z,3.00
2019-03-08T20:39:10.768Z,2.90
2019-03-08T20:41:50.329Z,3.03
2019-03-08T20:44:23.249Z,2.80
2019-03-08T20:46:56.139Z,2.87
2019-03-08T20:49:24.567Z,2.50
2019-03-08T20:51:53.442Z,2.73
2019-03-08T20:54:22.326Z,2.40
2019-03-08T20:56:51.232Z,2.70
2019-03-08T20:59:19.668Z,2.70
2019-03-08T21:01:48.481Z,2.50
2019-03-08T21:04:16.927Z,2.33
2019-03-08T21:06:45.393Z,2.60
2019-03-08T21:09:14.518Z,2.53
2019-03-08T21:11:43.064Z,3.10
2019-03-08T21:14:11.557Z,2.77
2019-03-08T21:16:40.365Z,2.47
2019-03-08T21:19:09.139Z,2.17
2019-03-08T21:21:37.666Z,2.60
2019-03-08T21:24:06.824Z,2.40
2019-03-08T21:26:35.309Z,2.40
2019-03-08T21:29:04.138Z,2.30
2019-03-08T21:31:32.669Z,2.93
2019-03-08T21:34:01.113Z,2.50
2019-03-08T21:36:30.132Z,2.20
2019-03-08T21:39:00.300Z,1.90
2019-03-08T21:41:28.746Z,1.93
2019-03-08T21:43:57.292Z,2.20
2019-03-08T21:46:26.133Z,2.57
2019-03-08T21:48:58.127Z,2.20
2019-03-08T21:51:26.658Z,2.10
2019-03-08T21:53:55.113Z,1.97
2019-03-08T21:56:23.542Z,2.60
2019-03-08T21:58:52.332Z,2.37
2019-03-08T22:01:21.253Z,2.43
2019-03-08T22:03:52.280Z,2.80
2019-03-08T22:06:21.125Z,2.50
2019-03-08T22:09:09.433Z,2.30
2019-03-08T22:11:41.524Z,2.60
2019-03-08T22:14:10.093Z,2.30
2019-03-08T22:16:38.523Z,2.83
2019-03-08T22:19:06.949Z,3.10
2019-03-08T22:21:36.415Z,2.40
2019-03-08T22:24:13.066Z,2.50
2019-03-08T22:26:38.022Z,2.27
2019-03-08T22:29:06.440Z,2.13
2019-03-08T22:31:34.946Z,2.87
2019-03-08T22:34:04.272Z,2.20
2019-03-08T22:36:32.685Z,2.13
2019-03-08T22:39:01.560Z,2.10
2019-03-08T22:41:30.154Z,1.80
2019-03-08T22:43:59.205Z,2.00
2019-03-08T22:46:27.676Z,1.90
2019-03-08T22:48:56.749Z,2.00
2019-03-08T22:51:25.177Z,1.93
2019-03-08T22:53:54.493Z,1.87
2019-03-08T22:56:22.906Z,2.13
2019-03-08T22:58:51.362Z,2.10
2019-03-08T23:01:22.081Z,1.97
2019-03-08T23:03:50.551Z,2.63
2019-03-08T23:06:18.976Z,2.43
2019-03-08T23:08:47.372Z,3.23
2019-03-08T23:11:15.839Z,2.77
2019-03-08T23:13:44.225Z,2.47
2019-03-08T23:16:13.037Z,2.20
2019-03-08T23:18:42.059Z,2.10
2019-03-08T23:21:10.521Z,2.00
2019-03-08T23:23:38.927Z,1.80
2019-03-08T23:26:07.344Z,2.20
2019-03-08T23:28:37.378Z,2.03
2019-03-08T23:31:09.294Z,1.77
2019-03-08T23:33:37.680Z,1.80
2019-03-08T23:36:06.080Z,1.93
2019-03-08T23:38:34.495Z,2.03
2019-03-08T23:41:02.890Z,1.90
2019-03-08T23:43:31.345Z,1.60
2019-03-08T23:45:59.745Z,1.40
2019-03-08T23:48:28.136Z,1.80
2019-03-08T23:50:56.565Z,1.93
2019-03-08T23:53:25.138Z,1.10
2019-03-08T23:55:53.549Z,0.93
2019-03-08T23:58:22.456Z,1.23
